sensor_id;sensor_type;location;lat;lon;timestamp;P1;durP1;ratioP1;P2;durP2;ratioP2
31378;SDS011;61664;48.112;11.662;2022-07-25T00:01:53;6.40;;;5.95;;
31378;SDS011;61664;48.112;11.662;2022-07-25T00:04:22;6.80;;;6.30;;
31378;SDS011;61664;48.112;11.662;2022-07-25T00:06:49;6.97;;;6.53;;
31378;SDS011;61664;48.112;11.662;2022-07-25T00:09:16;6.82;;;6.43;;
31378;SDS011;61664;48.112;11.662;2022-07-25T00:11:43;7.05;;;6.55;;
31378;SDS011;61664;48.112;11.662;2022-07-25T00:14:10;6.68;;;6.18;;
31378;SDS011;61664;48.112;11.662;2022-07-25T00:16:37;6.25;;;5.78;;
31378;SDS011;61664;48.112;11.662;2022-07-25T00:19:05;6.38;;;5.97;;
31378;SDS011;61664;48.112;11.662;2022-07-25T00:21:32;6.47;;;6.07;;
31378;SDS011;61664;48.112;11.662;2022-07-25T00:23:59;7.20;;;6.70;;
31378;SDS011;61664;48.112;11.662;2022-07-25T00:26:26;7.22;;;6.72;;
31378;SDS011;61664;48.112;11.662;2022-07-25T00:28:53;7.22;;;6.75;;
31378;SDS011;61664;48.112;11.662;2022-07-25T00:31:20;6.88;;;6.40;;
31378;SDS011;61664;48.112;11.662;2022-07-25T00:33:47;6.93;;;6.43;;
31378;SDS011;61664;48.112;11.662;2022-07-25T00:36:14;7.30;;;6.70;;
31378;SDS011;61664;48.112;11.662;2022-07-25T00:38:40;7.82;;;7.22;;
31378;SDS011;61664;48.112;11.662;2022-07-25T00:41:07;7.88;;;7.38;;
31378;SDS011;61664;48.112;11.662;2022-07-25T00:43:34;7.35;;;6.75;;
31378;SDS011;61664;48.112;11.662;2022-07-25T00:46:01;6.63;;;6.22;;
31378;SDS011;61664;48.112;11.662;2022-07-25T00:48:29;7.13;;;6.50;;
31378;SDS011;61664;48.112;11.662;2022-07-25T00:50:56;7.50;;;6.80;;
31378;SDS011;61664;48.112;11.662;2022-07-25T00:53:24;7.40;;;6.80;;
31378;SDS011;61664;48.112;11.662;2022-07-25T00:55:52;7.72;;;7.22;;
31378;SDS011;61664;48.112;11.662;2022-07-25T00:58:20;7.20;;;6.50;;
31378;SDS011;61664;48.112;11.662;2022-07-25T01:00:46;7.35;;;6.85;;
31378;SDS011;61664;48.112;11.662;2022-07-25T01:03:14;7.22;;;6.72;;
31378;SDS011;61664;48.112;11.662;2022-07-25T01:05:41;7.47;;;6.88;;
31378;SDS011;61664;48.112;11.662;2022-07-25T01:08:09;6.72;;;6.22;;
31378;SDS011;61664;48.112;11.662;2022-07-25T01:10:37;7.75;;;7.15;;
31378;SDS011;61664;48.112;11.662;2022-07-25T01:13:05;7.38;;;6.88;;
31378;SDS011;61664;48.112;11.662;2022-07-25T01:15:32;7.68;;;7.07;;
31378;SDS011;61664;48.112;11.662;2022-07-25T01:17:59;8.20;;;7.53;;
31378;SDS011;61664;48.112;11.662;2022-07-25T01:20:26;7.45;;;6.95;;
31378;SDS011;61664;48.112;11.662;2022-07-25T01:22:55;7.35;;;6.85;;
31378;SDS011;61664;48.112;11.662;2022-07-25T01:25:24;8.13;;;7.45;;
31378;SDS011;61664;48.112;11.662;2022-07-25T01:27:52;7.90;;;7.20;;
31378;SDS011;61664;48.112;11.662;2022-07-25T01:30:22;7.50;;;6.90;;
31378;SDS011;61664;48.112;11.662;2022-07-25T01:32:50;6.80;;;6.35;;
31378;SDS011;61664;48.112;11.662;2022-07-25T01:35:17;7.70;;;7.18;;
31378;SDS011;61664;48.112;11.662;2022-07-25T01:37:45;7.50;;;6.95;;
31378;SDS011;61664;48.112;11.662;2022-07-25T01:40:12;7.53;;;6.90;;
31378;SDS011;61664;48.112;11.662;2022-07-25T01:42:40;8.07;;;7.32;;
31378;SDS011;61664;48.112;11.662;2022-07-25T01:45:08;7.47;;;6.88;;
31378;SDS011;61664;48.112;11.662;2022-07-25T01:47:37;6.93;;;6.45;;
31378;SDS011;61664;48.112;11.662;2022-07-25T01:50:04;7.50;;;6.90;;
31378;SDS011;61664;48.112;11.662;2022-07-25T01:52:32;7.50;;;7.00;;
31378;SDS011;61664;48.112;11.662;2022-07-25T01:54:59;7.22;;;6.80;;
31378;SDS011;61664;48.112;11.662;2022-07-25T01:57:26;7.00;;;6.45;;
31378;SDS011;61664;48.112;11.662;2022-07-25T01:59:56;7.50;;;6.95;;
31378;SDS011;61664;48.112;11.662;2022-07-25T02:02:24;7.07;;;6.57;;
31378;SDS011;61664;48.112;11.662;2022-07-25T02:04:51;7.13;;;6.53;;
31378;SDS011;61664;48.112;11.662;2022-07-25T02:07:19;8.20;;;7.65;;
31378;SDS011;61664;48.112;11.662;2022-07-25T02:09:46;7.28;;;6.68;;
31378;SDS011;61664;48.112;11.662;2022-07-25T02:12:18;7.05;;;6.55;;
31378;SDS011;61664;48.112;11.662;2022-07-25T02:14:45;7.55;;;7.00;;
31378;SDS011;61664;48.112;11.662;2022-07-25T02:17:12;7.72;;;7.22;;
31378;SDS011;61664;48.112;11.662;2022-07-25T02:19:39;7.43;;;6.93;;
31378;SDS011;61664;48.112;11.662;2022-07-25T02:22:06;7.88;;;7.28;;
31378;SDS011;61664;48.112;11.662;2022-07-25T02:24:33;8.75;;;7.88;;
31378;SDS011;61664;48.112;11.662;2022-07-25T02:27:03;6.90;;;6.43;;
31378;SDS011;61664;48.112;11.662;2022-07-25T02:29:30;7.93;;;7.28;;
31378;SDS011;61664;48.112;11.662;2022-07-25T02:31:58;7.57;;;6.97;;
31378;SDS011;61664;48.112;11.662;2022-07-25T02:34:25;7.13;;;6.63;;
31378;SDS011;61664;48.112;11.662;2022-07-25T02:36:52;8.48;;;7.80;;
31378;SDS011;61664;48.112;11.662;2022-07-25T02:39:19;8.85;;;8.05;;
31378;SDS011;61664;48.112;11.662;2022-07-25T02:41:46;7.93;;;7.32;;
31378;SDS011;61664;48.112;11.662;2022-07-25T02:44:13;7.85;;;7.25;;
31378;SDS011;61664;48.112;11.662;2022-07-25T02:46:40;8.55;;;7.75;;
31378;SDS011;61664;48.112;11.662;2022-07-25T02:49:07;8.02;;;7.22;;
31378;SDS011;61664;48.112;11.662;2022-07-25T02:51:34;8.30;;;7.60;;
31378;SDS011;61664;48.112;11.662;2022-07-25T02:54:01;8.10;;;7.50;;
31378;SDS011;61664;48.112;11.662;2022-07-25T02:56:28;7.20;;;6.70;;
31378;SDS011;61664;48.112;11.662;2022-07-25T02:58:57;8.27;;;7.68;;
31378;SDS011;61664;48.112;11.662;2022-07-25T03:01:24;7.45;;;6.93;;
31378;SDS011;61664;48.112;11.662;2022-07-25T03:03:52;7.78;;;7.18;;
31378;SDS011;61664;48.112;11.662;2022-07-25T03:06:19;7.60;;;7.00;;
31378;SDS011;61664;48.112;11.662;2022-07-25T03:08:46;7.80;;;7.20;;
31378;SDS011;61664;48.112;11.662;2022-07-25T03:11:13;8.43;;;7.72;;
31378;SDS011;61664;48.112;11.662;2022-07-25T03:13:39;7.85;;;7.18;;
31378;SDS011;61664;48.112;11.662;2022-07-25T03:16:06;8.25;;;7.57;;
31378;SDS011;61664;48.112;11.662;2022-07-25T03:18:34;8.05;;;7.35;;
31378;SDS011;61664;48.112;11.662;2022-07-25T03:21:02;7.43;;;6.85;;
31378;SDS011;61664;48.112;11.662;2022-07-25T03:23:29;7.57;;;7.07;;
31378;SDS011;61664;48.112;11.662;2022-07-25T03:25:57;7.50;;;6.90;;
31378;SDS011;61664;48.112;11.662;2022-07-25T03:28:24;8.95;;;7.43;;
31378;SDS011;61664;48.112;11.662;2022-07-25T03:30:51;8.32;;;7.65;;
31378;SDS011;61664;48.112;11.662;2022-07-25T03:33:18;8.02;;;7.43;;
31378;SDS011;61664;48.112;11.662;2022-07-25T03:35:45;7.55;;;7.05;;
31378;SDS011;61664;48.112;11.662;2022-07-25T03:38:12;8.15;;;7.57;;
31378;SDS011;61664;48.112;11.662;2022-07-25T03:40:39;8.27;;;7.68;;
31378;SDS011;61664;48.112;11.662;2022-07-25T03:43:06;7.55;;;6.95;;
31378;SDS011;61664;48.112;11.662;2022-07-25T03:45:33;7.88;;;7.18;;
31378;SDS011;61664;48.112;11.662;2022-07-25T03:48:00;7.70;;;7.20;;
31378;SDS011;61664;48.112;11.662;2022-07-25T03:50:28;8.07;;;7.47;;
31378;SDS011;61664;48.112;11.662;2022-07-25T03:52:55;8.07;;;7.38;;
31378;SDS011;61664;48.112;11.662;2022-07-25T03:55:22;9.10;;;8.40;;
31378;SDS011;61664;48.112;11.662;2022-07-25T03:57:49;8.77;;;7.97;;
31378;SDS011;61664;48.112;11.662;2022-07-25T04:00:16;8.48;;;7.88;;
31378;SDS011;61664;48.112;11.662;2022-07-25T04:02:43;8.98;;;8.32;;
31378;SDS011;61664;48.112;11.662;2022-07-25T04:05:11;8.73;;;8.10;;
31378;SDS011;61664;48.112;11.662;2022-07-25T04:07:38;8.57;;;7.97;;
31378;SDS011;61664;48.112;11.662;2022-07-25T04:10:05;7.93;;;7.32;;
31378;SDS011;61664;48.112;11.662;2022-07-25T04:12:33;8.45;;;7.75;;
31378;SDS011;61664;48.112;11.662;2022-07-25T04:15:00;8.75;;;8.05;;
31378;SDS011;61664;48.112;11.662;2022-07-25T04:17:27;7.50;;;6.80;;
31378;SDS011;61664;48.112;11.662;2022-07-25T04:19:54;9.05;;;8.27;;
31378;SDS011;61664;48.112;11.662;2022-07-25T04:22:21;8.40;;;7.80;;
31378;SDS011;61664;48.112;11.662;2022-07-25T04:24:48;8.77;;;8.07;;
31378;SDS011;61664;48.112;11.662;2022-07-25T04:27:15;8.95;;;8.15;;
31378;SDS011;61664;48.112;11.662;2022-07-25T04:29:42;8.07;;;7.47;;
31378;SDS011;61664;48.112;11.662;2022-07-25T04:32:09;9.05;;;8.35;;
31378;SDS011;61664;48.112;11.662;2022-07-25T04:34:36;8.23;;;7.63;;
31378;SDS011;61664;48.112;11.662;2022-07-25T04:37:03;9.00;;;8.07;;
31378;SDS011;61664;48.112;11.662;2022-07-25T04:39:30;8.52;;;7.90;;
31378;SDS011;61664;48.112;11.662;2022-07-25T04:41:57;8.85;;;8.13;;
31378;SDS011;61664;48.112;11.662;2022-07-25T04:44:24;8.40;;;7.70;;
31378;SDS011;61664;48.112;11.662;2022-07-25T04:46:51;8.23;;;7.63;;
31378;SDS011;61664;48.112;11.662;2022-07-25T04:49:18;8.82;;;8.13;;
31378;SDS011;61664;48.112;11.662;2022-07-25T04:51:45;8.60;;;8.00;;
31378;SDS011;61664;48.112;11.662;2022-07-25T04:54:12;8.73;;;8.02;;
31378;SDS011;61664;48.112;11.662;2022-07-25T04:56:39;8.57;;;7.72;;
31378;SDS011;61664;48.112;11.662;2022-07-25T04:59:06;8.35;;;7.72;;
31378;SDS011;61664;48.112;11.662;2022-07-25T05:01:33;8.75;;;7.95;;
31378;SDS011;61664;48.112;11.662;2022-07-25T05:04:01;8.15;;;7.28;;
31378;SDS011;61664;48.112;11.662;2022-07-25T05:06:28;8.02;;;7.22;;
31378;SDS011;61664;48.112;11.662;2022-07-25T05:08:55;8.55;;;7.95;;
31378;SDS011;61664;48.112;11.662;2022-07-25T05:11:22;7.90;;;7.30;;
31378;SDS011;61664;48.112;11.662;2022-07-25T05:13:49;9.05;;;8.32;;
31378;SDS011;61664;48.112;11.662;2022-07-25T05:16:16;9.05;;;8.23;;
31378;SDS011;61664;48.112;11.662;2022-07-25T05:18:43;8.63;;;7.93;;
31378;SDS011;61664;48.112;11.662;2022-07-25T05:21:11;8.90;;;8.10;;
31378;SDS011;61664;48.112;11.662;2022-07-25T05:23:39;8.85;;;8.18;;
31378;SDS011;61664;48.112;11.662;2022-07-25T05:26:06;8.43;;;7.82;;
31378;SDS011;61664;48.112;11.662;2022-07-25T05:28:33;8.38;;;7.68;;
31378;SDS011;61664;48.112;11.662;2022-07-25T05:31:00;8.65;;;7.88;;
31378;SDS011;61664;48.112;11.662;2022-07-25T05:33:28;7.78;;;7.22;;
31378;SDS011;61664;48.112;11.662;2022-07-25T05:35:55;7.63;;;6.93;;
31378;SDS011;61664;48.112;11.662;2022-07-25T05:38:22;7.40;;;6.93;;
31378;SDS011;61664;48.112;11.662;2022-07-25T05:40:48;7.97;;;7.18;;
31378;SDS011;61664;48.112;11.662;2022-07-25T05:43:17;8.40;;;7.78;;
31378;SDS011;61664;48.112;11.662;2022-07-25T05:45:44;7.30;;;6.80;;
31378;SDS011;61664;48.112;11.662;2022-07-25T05:48:13;7.97;;;7.30;;
31378;SDS011;61664;48.112;11.662;2022-07-25T05:50:40;8.35;;;7.65;;
31378;SDS011;61664;48.112;11.662;2022-07-25T05:53:07;8.38;;;7.78;;
31378;SDS011;61664;48.112;11.662;2022-07-25T05:55:34;7.05;;;6.47;;
31378;SDS011;61664;48.112;11.662;2022-07-25T05:58:06;7.82;;;7.25;;
31378;SDS011;61664;48.112;11.662;2022-07-25T06:00:34;7.88;;;7.30;;
31378;SDS011;61664;48.112;11.662;2022-07-25T06:03:02;8.00;;;7.32;;
31378;SDS011;61664;48.112;11.662;2022-07-25T06:05:29;7.78;;;7.22;;
31378;SDS011;61664;48.112;11.662;2022-07-25T06:07:56;8.50;;;7.72;;
31378;SDS011;61664;48.112;11.662;2022-07-25T06:10:23;8.70;;;7.80;;
31378;SDS011;61664;48.112;11.662;2022-07-25T06:12:50;9.05;;;8.30;;
31378;SDS011;61664;48.112;11.662;2022-07-25T06:15:19;7.55;;;6.95;;
31378;SDS011;61664;48.112;11.662;2022-07-25T06:17:52;8.02;;;7.50;;
31378;SDS011;61664;48.112;11.662;2022-07-25T06:20:19;8.50;;;7.80;;
31378;SDS011;61664;48.112;11.662;2022-07-25T06:22:47;7.75;;;7.15;;
31378;SDS011;61664;48.112;11.662;2022-07-25T06:25:14;7.85;;;7.35;;
31378;SDS011;61664;48.112;11.662;2022-07-25T06:27:41;8.48;;;7.88;;
31378;SDS011;61664;48.112;11.662;2022-07-25T06:30:08;7.93;;;7.30;;
31378;SDS011;61664;48.112;11.662;2022-07-25T06:32:46;7.70;;;7.00;;
31378;SDS011;61664;48.112;11.662;2022-07-25T06:35:16;8.40;;;7.55;;
31378;SDS011;61664;48.112;11.662;2022-07-25T06:37:43;7.90;;;7.30;;
31378;SDS011;61664;48.112;11.662;2022-07-25T06:40:11;8.50;;;7.90;;
31378;SDS011;61664;48.112;11.662;2022-07-25T06:42:39;7.55;;;7.03;;
31378;SDS011;61664;48.112;11.662;2022-07-25T06:45:09;9.05;;;8.45;;
31378;SDS011;61664;48.112;11.662;2022-07-25T06:47:37;8.23;;;7.60;;
31378;SDS011;61664;48.112;11.662;2022-07-25T06:50:07;8.73;;;8.05;;
31378;SDS011;61664;48.112;11.662;2022-07-25T06:52:38;8.43;;;7.60;;
31378;SDS011;61664;48.112;11.662;2022-07-25T06:55:06;8.55;;;7.85;;
31378;SDS011;61664;48.112;11.662;2022-07-25T06:57:35;8.15;;;7.63;;
31378;SDS011;61664;48.112;11.662;2022-07-25T07:00:03;8.73;;;8.00;;
31378;SDS011;61664;48.112;11.662;2022-07-25T07:02:58;7.63;;;7.13;;
31378;SDS011;61664;48.112;11.662;2022-07-25T07:05:29;9.85;;;7.93;;
31378;SDS011;61664;48.112;11.662;2022-07-25T07:07:59;6.78;;;6.38;;
31378;SDS011;61664;48.112;11.662;2022-07-25T07:10:26;7.65;;;7.10;;
31378;SDS011;61664;48.112;11.662;2022-07-25T07:13:07;7.70;;;7.20;;
31378;SDS011;61664;48.112;11.662;2022-07-25T07:15:46;7.60;;;7.10;;
31378;SDS011;61664;48.112;11.662;2022-07-25T07:18:15;7.60;;;7.10;;
31378;SDS011;61664;48.112;11.662;2022-07-25T07:20:44;8.10;;;7.50;;
31378;SDS011;61664;48.112;11.662;2022-07-25T07:23:11;7.30;;;6.80;;
31378;SDS011;61664;48.112;11.662;2022-07-25T07:25:42;7.57;;;7.05;;
31378;SDS011;61664;48.112;11.662;2022-07-25T07:28:11;7.88;;;7.38;;
31378;SDS011;61664;48.112;11.662;2022-07-25T07:30:38;8.43;;;7.85;;
31378;SDS011;61664;48.112;11.662;2022-07-25T07:33:25;7.60;;;7.10;;
31378;SDS011;61664;48.112;11.662;2022-07-25T07:35:52;6.85;;;6.45;;
31378;SDS011;61664;48.112;11.662;2022-07-25T07:38:21;7.93;;;7.38;;
31378;SDS011;61664;48.112;11.662;2022-07-25T07:40:50;8.52;;;7.95;;
31378;SDS011;61664;48.112;11.662;2022-07-25T07:43:18;8.07;;;7.47;;
31378;SDS011;61664;48.112;11.662;2022-07-25T07:45:45;7.72;;;7.10;;
31378;SDS011;61664;48.112;11.662;2022-07-25T07:48:12;7.15;;;6.75;;
31378;SDS011;61664;48.112;11.662;2022-07-25T07:50:39;8.45;;;7.85;;
31378;SDS011;61664;48.112;11.662;2022-07-25T07:53:06;7.65;;;7.15;;
31378;SDS011;61664;48.112;11.662;2022-07-25T07:55:33;7.60;;;7.10;;
31378;SDS011;61664;48.112;11.662;2022-07-25T07:58:12;8.23;;;7.72;;
31378;SDS011;61664;48.112;11.662;2022-07-25T08:00:46;7.85;;;7.30;;
31378;SDS011;61664;48.112;11.662;2022-07-25T08:03:17;7.40;;;7.00;;
31378;SDS011;61664;48.112;11.662;2022-07-25T08:05:47;7.80;;;7.30;;
31378;SDS011;61664;48.112;11.662;2022-07-25T08:08:15;7.88;;;7.40;;
31378;SDS011;61664;48.112;11.662;2022-07-25T08:10:43;8.43;;;7.82;;
31378;SDS011;61664;48.112;11.662;2022-07-25T08:15:47;7.53;;;7.03;;
31378;SDS011;61664;48.112;11.662;2022-07-25T08:18:22;7.13;;;6.70;;
31378;SDS011;61664;48.112;11.662;2022-07-25T08:20:51;7.78;;;7.28;;
31378;SDS011;61664;48.112;11.662;2022-07-25T08:23:18;7.53;;;7.03;;
31378;SDS011;61664;48.112;11.662;2022-07-25T08:25:45;7.47;;;6.97;;
31378;SDS011;61664;48.112;11.662;2022-07-25T08:28:13;8.15;;;7.55;;
31378;SDS011;61664;48.112;11.662;2022-07-25T08:30:40;7.13;;;6.72;;
31378;SDS011;61664;48.112;11.662;2022-07-25T08:33:09;7.85;;;7.22;;
31378;SDS011;61664;48.112;11.662;2022-07-25T08:38:10;7.00;;;6.60;;
31378;SDS011;61664;48.112;11.662;2022-07-25T08:40:37;7.05;;;6.55;;
31378;SDS011;61664;48.112;11.662;2022-07-25T08:43:04;7.15;;;6.72;;
31378;SDS011;61664;48.112;11.662;2022-07-25T08:45:31;7.28;;;6.88;;
31378;SDS011;61664;48.112;11.662;2022-07-25T08:47:59;6.47;;;6.13;;
31378;SDS011;61664;48.112;11.662;2022-07-25T08:50:27;6.90;;;6.50;;
31378;SDS011;61664;48.112;11.662;2022-07-25T08:52:55;7.38;;;6.88;;
31378;SDS011;61664;48.112;11.662;2022-07-25T08:55:43;7.85;;;7.38;;
31378;SDS011;61664;48.112;11.662;2022-07-25T08:58:11;6.95;;;6.55;;
31378;SDS011;61664;48.112;11.662;2022-07-25T09:00:40;6.28;;;5.97;;
31378;SDS011;61664;48.112;11.662;2022-07-25T09:03:08;6.00;;;5.70;;
31378;SDS011;61664;48.112;11.662;2022-07-25T09:05:36;6.72;;;6.38;;
31378;SDS011;61664;48.112;11.662;2022-07-25T09:08:05;6.30;;;6.00;;
31378;SDS011;61664;48.112;11.662;2022-07-25T09:10:38;7.10;;;6.70;;
31378;SDS011;61664;48.112;11.662;2022-07-25T09:13:11;7.43;;;7.03;;
31378;SDS011;61664;48.112;11.662;2022-07-25T09:18:16;6.70;;;6.30;;
31378;SDS011;61664;48.112;11.662;2022-07-25T09:20:49;6.18;;;5.88;;
31378;SDS011;61664;48.112;11.662;2022-07-25T09:26:12;6.30;;;5.93;;
31378;SDS011;61664;48.112;11.662;2022-07-25T09:28:40;6.53;;;6.13;;
31378;SDS011;61664;48.112;11.662;2022-07-25T09:31:13;7.05;;;6.45;;
31378;SDS011;61664;48.112;11.662;2022-07-25T09:33:49;6.68;;;6.28;;
31378;SDS011;61664;48.112;11.662;2022-07-25T09:36:22;6.63;;;6.22;;
31378;SDS011;61664;48.112;11.662;2022-07-25T09:41:33;6.05;;;5.75;;
31378;SDS011;61664;48.112;11.662;2022-07-25T09:44:16;6.55;;;6.15;;
31378;SDS011;61664;48.112;11.662;2022-07-25T09:47:08;6.53;;;6.13;;
31378;SDS011;61664;48.112;11.662;2022-07-25T09:49:50;5.68;;;5.38;;
31378;SDS011;61664;48.112;11.662;2022-07-25T09:52:18;5.60;;;5.30;;
31378;SDS011;61664;48.112;11.662;2022-07-25T09:54:45;5.45;;;5.00;;
31378;SDS011;61664;48.112;11.662;2022-07-25T09:57:12;4.97;;;4.68;;
31378;SDS011;61664;48.112;11.662;2022-07-25T09:59:39;5.25;;;4.95;;
31378;SDS011;61664;48.112;11.662;2022-07-25T10:05:13;5.43;;;5.13;;
31378;SDS011;61664;48.112;11.662;2022-07-25T10:08:13;5.20;;;4.90;;
31378;SDS011;61664;48.112;11.662;2022-07-25T10:10:40;5.13;;;4.82;;
31378;SDS011;61664;48.112;11.662;2022-07-25T10:13:09;5.20;;;4.90;;
31378;SDS011;61664;48.112;11.662;2022-07-25T10:15:41;4.57;;;4.38;;
31378;SDS011;61664;48.112;11.662;2022-07-25T10:18:24;4.82;;;4.50;;
31378;SDS011;61664;48.112;11.662;2022-07-25T10:21:09;4.78;;;4.53;;
31378;SDS011;61664;48.112;11.662;2022-07-25T10:23:58;5.22;;;4.93;;
31378;SDS011;61664;48.112;11.662;2022-07-25T10:26:34;4.50;;;4.30;;
31378;SDS011;61664;48.112;11.662;2022-07-25T10:29:11;4.70;;;4.50;;
31378;SDS011;61664;48.112;11.662;2022-07-25T10:31:42;4.82;;;4.53;;
31378;SDS011;61664;48.112;11.662;2022-07-25T10:34:26;4.60;;;4.40;;
31378;SDS011;61664;48.112;11.662;2022-07-25T10:36:56;4.07;;;3.88;;
31378;SDS011;61664;48.112;11.662;2022-07-25T10:39:41;4.20;;;4.00;;
31378;SDS011;61664;48.112;11.662;2022-07-25T10:42:14;4.53;;;4.32;;
31378;SDS011;61664;48.112;11.662;2022-07-25T10:44:50;4.10;;;3.90;;
31378;SDS011;61664;48.112;11.662;2022-07-25T10:47:25;4.65;;;4.45;;
31378;SDS011;61664;48.112;11.662;2022-07-25T10:49:57;4.40;;;4.10;;
31378;SDS011;61664;48.112;11.662;2022-07-25T10:52:56;4.60;;;4.28;;
31378;SDS011;61664;48.112;11.662;2022-07-25T10:55:27;4.70;;;4.50;;
31378;SDS011;61664;48.112;11.662;2022-07-25T10:58:00;5.18;;;4.85;;
31378;SDS011;61664;48.112;11.662;2022-07-25T11:00:46;4.93;;;4.65;;
31378;SDS011;61664;48.112;11.662;2022-07-25T11:03:16;5.15;;;4.85;;
31378;SDS011;61664;48.112;11.662;2022-07-25T11:05:44;4.97;;;4.57;;
31378;SDS011;61664;48.112;11.662;2022-07-25T11:08:13;4.53;;;4.32;;
31378;SDS011;61664;48.112;11.662;2022-07-25T11:10:51;4.70;;;4.40;;
31378;SDS011;61664;48.112;11.662;2022-07-25T11:13:18;4.07;;;3.88;;
31378;SDS011;61664;48.112;11.662;2022-07-25T11:15:46;4.68;;;4.47;;
31378;SDS011;61664;48.112;11.662;2022-07-25T11:18:13;4.85;;;4.55;;
31378;SDS011;61664;48.112;11.662;2022-07-25T11:20:41;3.80;;;3.60;;
31378;SDS011;61664;48.112;11.662;2022-07-25T11:23:07;4.30;;;4.10;;
31378;SDS011;61664;48.112;11.662;2022-07-25T11:25:35;4.28;;;4.07;;
31378;SDS011;61664;48.112;11.662;2022-07-25T11:28:01;4.72;;;4.43;;
31378;SDS011;61664;48.112;11.662;2022-07-25T11:30:29;4.60;;;4.30;;
31378;SDS011;61664;48.112;11.662;2022-07-25T11:32:57;3.38;;;3.28;;
31378;SDS011;61664;48.112;11.662;2022-07-25T11:35:27;3.75;;;3.55;;
31378;SDS011;61664;48.112;11.662;2022-07-25T11:37:58;3.38;;;3.17;;
31378;SDS011;61664;48.112;11.662;2022-07-25T11:40:27;3.30;;;3.13;;
31378;SDS011;61664;48.112;11.662;2022-07-25T11:42:57;3.87;;;3.67;;
31378;SDS011;61664;48.112;11.662;2022-07-25T11:45:29;3.95;;;3.75;;
31378;SDS011;61664;48.112;11.662;2022-07-25T11:48:06;4.00;;;3.80;;
31378;SDS011;61664;48.112;11.662;2022-07-25T11:50:39;3.47;;;3.08;;
31378;SDS011;61664;48.112;11.662;2022-07-25T11:53:09;3.55;;;3.35;;
31378;SDS011;61664;48.112;11.662;2022-07-25T11:55:41;3.95;;;3.75;;
31378;SDS011;61664;48.112;11.662;2022-07-25T11:58:09;3.25;;;3.05;;
31378;SDS011;61664;48.112;11.662;2022-07-25T12:00:39;3.30;;;3.10;;
31378;SDS011;61664;48.112;11.662;2022-07-25T12:03:15;3.15;;;3.05;;
31378;SDS011;61664;48.112;11.662;2022-07-25T12:05:46;3.40;;;3.20;;
31378;SDS011;61664;48.112;11.662;2022-07-25T12:08:16;4.32;;;3.45;;
31378;SDS011;61664;48.112;11.662;2022-07-25T12:10:46;3.38;;;3.17;;
31378;SDS011;61664;48.112;11.662;2022-07-25T12:13:21;4.10;;;3.80;;
31378;SDS011;61664;48.112;11.662;2022-07-25T12:15:50;3.47;;;3.33;;
31378;SDS011;61664;48.112;11.662;2022-07-25T12:18:18;3.55;;;3.40;;
31378;SDS011;61664;48.112;11.662;2022-07-25T12:20:45;3.47;;;3.28;;
31378;SDS011;61664;48.112;11.662;2022-07-25T12:23:12;3.80;;;3.60;;
31378;SDS011;61664;48.112;11.662;2022-07-25T12:25:40;3.35;;;3.13;;
31378;SDS011;61664;48.112;11.662;2022-07-25T12:28:10;3.20;;;3.10;;
31378;SDS011;61664;48.112;11.662;2022-07-25T12:30:38;3.75;;;3.55;;
31378;SDS011;61664;48.112;11.662;2022-07-25T12:33:07;4.78;;;3.63;;
31378;SDS011;61664;48.112;11.662;2022-07-25T12:35:35;3.80;;;3.50;;
31378;SDS011;61664;48.112;11.662;2022-07-25T12:38:02;4.10;;;3.90;;
31378;SDS011;61664;48.112;11.662;2022-07-25T12:40:30;3.97;;;3.78;;
31378;SDS011;61664;48.112;11.662;2022-07-25T12:42:57;3.95;;;3.75;;
31378;SDS011;61664;48.112;11.662;2022-07-25T12:45:24;4.43;;;4.22;;
31378;SDS011;61664;48.112;11.662;2022-07-25T12:47:52;3.50;;;3.30;;
31378;SDS011;61664;48.112;11.662;2022-07-25T12:50:19;4.30;;;4.10;;
31378;SDS011;61664;48.112;11.662;2022-07-25T12:52:47;3.75;;;3.55;;
31378;SDS011;61664;48.112;11.662;2022-07-25T12:55:14;3.60;;;3.30;;
31378;SDS011;61664;48.112;11.662;2022-07-25T12:57:43;3.95;;;3.75;;
31378;SDS011;61664;48.112;11.662;2022-07-25T13:00:12;3.60;;;3.40;;
31378;SDS011;61664;48.112;11.662;2022-07-25T13:02:42;4.03;;;3.72;;
31378;SDS011;61664;48.112;11.662;2022-07-25T13:05:09;4.38;;;4.18;;
31378;SDS011;61664;48.112;11.662;2022-07-25T13:07:36;3.80;;;3.60;;
31378;SDS011;61664;48.112;11.662;2022-07-25T13:10:04;3.60;;;3.40;;
31378;SDS011;61664;48.112;11.662;2022-07-25T13:12:32;4.10;;;3.90;;
31378;SDS011;61664;48.112;11.662;2022-07-25T13:14:59;3.97;;;3.78;;
31378;SDS011;61664;48.112;11.662;2022-07-25T13:17:27;3.83;;;3.53;;
31378;SDS011;61664;48.112;11.662;2022-07-25T13:19:54;4.50;;;4.20;;
31378;SDS011;61664;48.112;11.662;2022-07-25T13:22:22;3.80;;;3.60;;
31378;SDS011;61664;48.112;11.662;2022-07-25T13:24:50;3.90;;;3.70;;
31378;SDS011;61664;48.112;11.662;2022-07-25T13:27:19;3.85;;;3.65;;
31378;SDS011;61664;48.112;11.662;2022-07-25T13:29:47;4.47;;;4.28;;
31378;SDS011;61664;48.112;11.662;2022-07-25T13:32:21;3.78;;;3.58;;
31378;SDS011;61664;48.112;11.662;2022-07-25T13:34:48;4.30;;;4.00;;
31378;SDS011;61664;48.112;11.662;2022-07-25T13:37:15;4.88;;;4.57;;
31378;SDS011;61664;48.112;11.662;2022-07-25T13:39:42;4.65;;;4.45;;
31378;SDS011;61664;48.112;11.662;2022-07-25T13:42:10;4.18;;;3.95;;
31378;SDS011;61664;48.112;11.662;2022-07-25T13:44:36;4.00;;;3.80;;
31378;SDS011;61664;48.112;11.662;2022-07-25T13:47:04;3.92;;;3.67;;
31378;SDS011;61664;48.112;11.662;2022-07-25T13:49:31;4.30;;;4.10;;
31378;SDS011;61664;48.112;11.662;2022-07-25T13:51:58;4.45;;;4.03;;
31378;SDS011;61664;48.112;11.662;2022-07-25T13:54:25;3.90;;;3.70;;
31378;SDS011;61664;48.112;11.662;2022-07-25T13:56:52;4.78;;;4.25;;
31378;SDS011;61664;48.112;11.662;2022-07-25T13:59:19;3.88;;;3.75;;
31378;SDS011;61664;48.112;11.662;2022-07-25T14:01:47;3.60;;;3.40;;
31378;SDS011;61664;48.112;11.662;2022-07-25T14:04:15;4.10;;;3.72;;
31378;SDS011;61664;48.112;11.662;2022-07-25T14:06:42;4.30;;;3.50;;
31378;SDS011;61664;48.112;11.662;2022-07-25T14:09:10;3.42;;;3.22;;
31378;SDS011;61664;48.112;11.662;2022-07-25T14:11:37;3.35;;;3.22;;
31378;SDS011;61664;48.112;11.662;2022-07-25T14:14:04;3.35;;;3.25;;
31378;SDS011;61664;48.112;11.662;2022-07-25T14:16:31;3.45;;;3.20;;
31378;SDS011;61664;48.112;11.662;2022-07-25T14:19:00;3.50;;;3.20;;
31378;SDS011;61664;48.112;11.662;2022-07-25T14:21:27;2.97;;;2.88;;
31378;SDS011;61664;48.112;11.662;2022-07-25T14:23:55;3.25;;;3.15;;
31378;SDS011;61664;48.112;11.662;2022-07-25T14:26:22;3.08;;;2.97;;
31378;SDS011;61664;48.112;11.662;2022-07-25T14:28:50;3.00;;;2.90;;
31378;SDS011;61664;48.112;11.662;2022-07-25T14:31:17;3.08;;;2.70;;
31378;SDS011;61664;48.112;11.662;2022-07-25T14:33:44;2.85;;;2.75;;
31378;SDS011;61664;48.112;11.662;2022-07-25T14:36:12;2.95;;;2.85;;
31378;SDS011;61664;48.112;11.662;2022-07-25T14:38:39;2.80;;;2.70;;
31378;SDS011;61664;48.112;11.662;2022-07-25T14:41:05;2.65;;;2.55;;
31378;SDS011;61664;48.112;11.662;2022-07-25T14:43:38;2.65;;;2.45;;
31378;SDS011;61664;48.112;11.662;2022-07-25T14:46:06;3.20;;;3.10;;
31378;SDS011;61664;48.112;11.662;2022-07-25T14:48:34;3.13;;;3.03;;
31378;SDS011;61664;48.112;11.662;2022-07-25T14:51:03;3.03;;;2.90;;
31378;SDS011;61664;48.112;11.662;2022-07-25T14:53:31;3.10;;;2.90;;
31378;SDS011;61664;48.112;11.662;2022-07-25T14:56:00;3.00;;;2.80;;
31378;SDS011;61664;48.112;11.662;2022-07-25T14:58:30;2.38;;;2.28;;
31378;SDS011;61664;48.112;11.662;2022-07-25T15:00:58;2.78;;;2.67;;